< Typhoon 198312 1983 Season Typhoon 198314 >
Typhoon 198313 (IDA)
General InformationTrack Information on Google MapsDetailed Wind InformationList of All Images || Disaster Info.ResourceGoogle EarthGE AnimationAtom FeedGeoJSON
Detalied Best Track (Time Zone = UTC)
Year Month Day Hour Lat. Long. Pressure (hPa) Wind (kt) Class Image Chart
1983 10 7 00 17.0 143.0 1004 0 2 Image Chart
1983 10 7 06 18.0 142.0 1004 0 2 Image Chart
1983 10 7 12 19.0 141.0 1004 0 2 Image Chart
1983 10 7 18 19.5 139.5 1002 0 2 Image Chart
1983 10 8 00 20.0 138.0 1000 40 3 Image Chart
1983 10 8 06 20.8 136.3 998 45 3 Image Chart
1983 10 8 12 21.4 134.5 996 45 3 Image Chart
1983 10 8 18 22.3 133.1 990 50 4 Image Chart
1983 10 9 00 23.6 132.1 985 55 4 Image Chart
1983 10 9 06 24.8 131.8 985 60 4 Image Chart
1983 10 9 12 26.0 132.0 980 60 4 Image Chart
1983 10 9 18 27.5 132.7 980 60 4 Image Chart
1983 10 10 00 28.9 133.2 975 55 4 Image Chart
1983 10 10 06 30.3 133.7 975 55 4 Image Chart
1983 10 10 12 31.5 134.7 975 55 4 Image Chart
1983 10 10 18 32.5 136.3 975 55 4 Image Chart
1983 10 11 00 33.5 139.1 980 55 4 Image Chart
1983 10 11 06 34.6 142.6 980 55 4 Image Chart
1983 10 11 12 36.0 147.0 980 0 6 Image Chart
1983 10 11 18 37.0 153.0 976 0 6 Image Chart
1983 10 12 00 38.0 158.0 980 0 6 Image Chart
1983 10 12 06 41.0 165.0 984 0 6 Image Chart
1983 10 12 12 42.0 171.0 986 0 6 Image Chart
1983 10 12 18 43.0 176.0 988 0 6 Image Chart
1983 10 13 00 46.0 178.0 994 0 6 Image Chart
1983 10 13 06 46.0 181.0 1000 0 6 Image Chart
Japan Meteorological Agency Best Track Data | Correction Date : 1992-10-21
< Typhoon 198312 1983 Season Typhoon 198314 >

Help